Wetter & Webcam

Wetterdaten Diepholz (ETND)

METAR
METAR text: ETND 151320Z 02003KT 9999 BKN060 SCT210 09/M04 Q1030 BLU Conditions at: ETND (DIEPHOLZ (GER-AF, DE) observed 1320 UTC 15 April 2021 Temperature: 9.0°C (48°F) Dewpoint: -4.0°C (25°F) [RH = 40%] Pressure (altimeter): 30.41 inches Hg (1030.0 mb) Winds: from the NNE (20 degrees) at 3 MPH (3 knots; 1.5 m/s) Visibility: 6 or more miles (10+ km) Ceiling: 6000 feet AGL Clouds: broken clouds at 6000 feet AGL =
scattered clouds at 21000 feet AGL Weather: no significant weather observed at this time
Sunrise (SR) / Sunset (SS)
04:27 / 18:25 UTC

Wetterdaten Bremen (EDDW)

METAR
METAR text: EDDW 151350Z 01010KT 310V050 CAVOK 10/M05 Q1030 NOSIG Conditions at: EDDW (BREMEN , DE) observed 1350 UTC 15 April 2021 Temperature: 10.0°C (50°F) Dewpoint: -5.0°C (23°F) [RH = 34%] Pressure (altimeter): 30.41 inches Hg (1030.0 mb) Winds: from the N (10 degrees) at 12 MPH (10 knots; 5.1 m/s) Visibility: 6 or more miles (10+ km) Ceiling: ceiling and visibility are OK Clouds: unknown Weather: no significant weather observed at this time Forecast for: EDDW (BREMEN , DE) Text: EDDW 151100Z 1512/1612 02008KT CAVOK Forecast period: 1200 to 1700 UTC 15 April 2021 Forecast type: FROM: standard forecast or significant change Winds: from the NNE (20 degrees) at 9 MPH (8 knots; 4.1 m/s) Visibility: 6 or more miles (10+ km) Ceiling: unknown Clouds: missing Weather: NSW  (no significant weather) Text: BECMG 1517/1520 36003KT Forecast period: 1700 UTC 15 April 2021 to 0500 UTC 16 April 2021 Forecast type: BECOMING: Conditions expected to become as follows by 2000 UTC 15 April 2021 Winds: from the N (360 degrees) at 3 MPH (3 knots; 1.5 m/s) Visibility: 6 or more miles (10+ km) Ceiling: unknown Clouds: missing Weather: NSW  (no significant weather) Text: BECMG 1605/1608 02010KT Forecast period: 0500 to 1200 UTC 16 April 2021 Forecast type: BECOMING: Conditions expected to become as follows by 0800 UTC 16 April 2021 Winds: from the NNE (20 degrees) at 12 MPH (10 knots; 5.1 m/s) Visibility: 6 or more miles (10+ km) Ceiling: unknown Clouds: missing Weather: NSW  (no significant weather)

Copyright © 2020 Flugplatz Diepholz-Dümmerland

© 2020 Flugplatz Diepholz-Dümmerland